sensor_id;sensor_type;location;lat;lon;timestamp;P1;durP1;ratioP1;P2;durP2;ratioP2
7444;SDS011;3764;48.126;11.594;2024-02-21T00:00:25;2.85;;;2.20;;
7444;SDS011;3764;48.126;11.594;2024-02-21T00:02:54;4.00;;;2.30;;
7444;SDS011;3764;48.126;11.594;2024-02-21T00:05:24;3.55;;;1.90;;
7444;SDS011;3764;48.126;11.594;2024-02-21T00:07:51;3.30;;;2.20;;
7444;SDS011;3764;48.126;11.594;2024-02-21T00:10:18;4.90;;;2.22;;
7444;SDS011;3764;48.126;11.594;2024-02-21T00:12:46;5.38;;;2.65;;
7444;SDS011;3764;48.126;11.594;2024-02-21T00:15:13;3.80;;;2.42;;
7444;SDS011;3764;48.126;11.594;2024-02-21T00:17:40;3.40;;;2.35;;
7444;SDS011;3764;48.126;11.594;2024-02-21T00:20:09;3.70;;;1.45;;
7444;SDS011;3764;48.126;11.594;2024-02-21T00:22:37;4.45;;;2.17;;
7444;SDS011;3764;48.126;11.594;2024-02-21T00:25:04;8.30;;;2.10;;
7444;SDS011;3764;48.126;11.594;2024-02-21T00:27:32;6.15;;;2.30;;
7444;SDS011;3764;48.126;11.594;2024-02-21T00:29:59;2.95;;;2.20;;
7444;SDS011;3764;48.126;11.594;2024-02-21T00:32:26;4.05;;;2.58;;
7444;SDS011;3764;48.126;11.594;2024-02-21T00:34:53;3.58;;;2.47;;
7444;SDS011;3764;48.126;11.594;2024-02-21T00:37:22;5.18;;;2.25;;
7444;SDS011;3764;48.126;11.594;2024-02-21T00:39:49;4.05;;;2.13;;
7444;SDS011;3764;48.126;11.594;2024-02-21T00:42:16;5.05;;;2.03;;
7444;SDS011;3764;48.126;11.594;2024-02-21T00:44:44;5.25;;;2.40;;
7444;SDS011;3764;48.126;11.594;2024-02-21T00:47:11;3.90;;;2.42;;
7444;SDS011;3764;48.126;11.594;2024-02-21T00:49:38;4.60;;;2.17;;
7444;SDS011;3764;48.126;11.594;2024-02-21T00:52:06;4.13;;;2.40;;
7444;SDS011;3764;48.126;11.594;2024-02-21T00:54:34;4.03;;;2.38;;
7444;SDS011;3764;48.126;11.594;2024-02-21T00:57:02;5.22;;;2.30;;
7444;SDS011;3764;48.126;11.594;2024-02-21T00:59:29;2.53;;;1.92;;
7444;SDS011;3764;48.126;11.594;2024-02-21T01:01:57;5.82;;;2.50;;
7444;SDS011;3764;48.126;11.594;2024-02-21T01:04:24;2.55;;;2.35;;
7444;SDS011;3764;48.126;11.594;2024-02-21T01:06:52;4.13;;;2.33;;
7444;SDS011;3764;48.126;11.594;2024-02-21T01:09:19;3.78;;;2.45;;
7444;SDS011;3764;48.126;11.594;2024-02-21T01:11:47;3.45;;;2.17;;
7444;SDS011;3764;48.126;11.594;2024-02-21T01:14:15;3.83;;;2.60;;
7444;SDS011;3764;48.126;11.594;2024-02-21T01:16:42;2.53;;;1.88;;
7444;SDS011;3764;48.126;11.594;2024-02-21T01:19:09;4.80;;;2.33;;
7444;SDS011;3764;48.126;11.594;2024-02-21T01:21:36;3.15;;;2.13;;
7444;SDS011;3764;48.126;11.594;2024-02-21T01:24:04;3.83;;;2.50;;
7444;SDS011;3764;48.126;11.594;2024-02-21T01:26:31;3.78;;;1.83;;
7444;SDS011;3764;48.126;11.594;2024-02-21T01:29:00;2.95;;;1.90;;
7444;SDS011;3764;48.126;11.594;2024-02-21T01:31:27;3.22;;;2.70;;
7444;SDS011;3764;48.126;11.594;2024-02-21T01:33:55;4.40;;;2.63;;
7444;SDS011;3764;48.126;11.594;2024-02-21T01:36:23;2.30;;;1.73;;
7444;SDS011;3764;48.126;11.594;2024-02-21T01:38:50;6.50;;;2.17;;
7444;SDS011;3764;48.126;11.594;2024-02-21T01:41:17;2.75;;;1.98;;
7444;SDS011;3764;48.126;11.594;2024-02-21T01:43:44;2.75;;;2.20;;
7444;SDS011;3764;48.126;11.594;2024-02-21T01:46:13;6.13;;;2.30;;
7444;SDS011;3764;48.126;11.594;2024-02-21T01:48:41;2.85;;;1.73;;
7444;SDS011;3764;48.126;11.594;2024-02-21T01:51:08;7.38;;;1.90;;
7444;SDS011;3764;48.126;11.594;2024-02-21T01:53:36;2.05;;;1.70;;
7444;SDS011;3764;48.126;11.594;2024-02-21T01:56:08;2.30;;;1.90;;
7444;SDS011;3764;48.126;11.594;2024-02-21T01:58:37;2.28;;;1.80;;
7444;SDS011;3764;48.126;11.594;2024-02-21T02:01:07;2.20;;;2.00;;
7444;SDS011;3764;48.126;11.594;2024-02-21T02:03:35;3.17;;;1.98;;
7444;SDS011;3764;48.126;11.594;2024-02-21T02:06:04;6.60;;;2.17;;
7444;SDS011;3764;48.126;11.594;2024-02-21T02:08:32;1.95;;;1.75;;
7444;SDS011;3764;48.126;11.594;2024-02-21T02:10:59;3.78;;;1.98;;
7444;SDS011;3764;48.126;11.594;2024-02-21T02:13:27;3.13;;;1.90;;
7444;SDS011;3764;48.126;11.594;2024-02-21T02:15:54;4.30;;;1.85;;
7444;SDS011;3764;48.126;11.594;2024-02-21T02:18:22;2.47;;;1.63;;
7444;SDS011;3764;48.126;11.594;2024-02-21T02:20:50;1.80;;;1.70;;
7444;SDS011;3764;48.126;11.594;2024-02-21T02:23:21;1.85;;;1.63;;
7444;SDS011;3764;48.126;11.594;2024-02-21T02:25:50;1.95;;;1.52;;
7444;SDS011;3764;48.126;11.594;2024-02-21T02:28:18;2.13;;;1.50;;
7444;SDS011;3764;48.126;11.594;2024-02-21T02:30:45;5.10;;;2.00;;
7444;SDS011;3764;48.126;11.594;2024-02-21T02:33:13;3.28;;;1.90;;
7444;SDS011;3764;48.126;11.594;2024-02-21T02:35:42;1.67;;;1.27;;
7444;SDS011;3764;48.126;11.594;2024-02-21T02:38:09;3.00;;;1.77;;
7444;SDS011;3764;48.126;11.594;2024-02-21T02:40:39;3.55;;;2.00;;
7444;SDS011;3764;48.126;11.594;2024-02-21T02:43:07;3.03;;;1.85;;
7444;SDS011;3764;48.126;11.594;2024-02-21T02:45:34;2.40;;;1.75;;
7444;SDS011;3764;48.126;11.594;2024-02-21T02:48:01;2.10;;;1.75;;
7444;SDS011;3764;48.126;11.594;2024-02-21T02:50:29;1.75;;;1.55;;
7444;SDS011;3764;48.126;11.594;2024-02-21T02:52:57;3.33;;;2.17;;
7444;SDS011;3764;48.126;11.594;2024-02-21T02:55:24;2.20;;;1.70;;
7444;SDS011;3764;48.126;11.594;2024-02-21T02:57:53;4.03;;;1.73;;
7444;SDS011;3764;48.126;11.594;2024-02-21T03:00:21;2.38;;;1.80;;
7444;SDS011;3764;48.126;11.594;2024-02-21T03:02:48;2.75;;;1.70;;
7444;SDS011;3764;48.126;11.594;2024-02-21T03:05:16;3.22;;;1.60;;
7444;SDS011;3764;48.126;11.594;2024-02-21T03:07:45;2.47;;;1.33;;
7444;SDS011;3764;48.126;11.594;2024-02-21T03:10:13;2.90;;;1.55;;
7444;SDS011;3764;48.126;11.594;2024-02-21T03:12:41;2.65;;;1.63;;
7444;SDS011;3764;48.126;11.594;2024-02-21T03:15:10;1.40;;;1.30;;
7444;SDS011;3764;48.126;11.594;2024-02-21T03:17:38;1.98;;;1.67;;
7444;SDS011;3764;48.126;11.594;2024-02-21T03:20:06;2.70;;;1.70;;
7444;SDS011;3764;48.126;11.594;2024-02-21T03:22:35;3.63;;;1.40;;
7444;SDS011;3764;48.126;11.594;2024-02-21T03:25:02;3.15;;;1.38;;
7444;SDS011;3764;48.126;11.594;2024-02-21T03:27:31;1.75;;;1.40;;
7444;SDS011;3764;48.126;11.594;2024-02-21T03:29:58;2.60;;;1.70;;
7444;SDS011;3764;48.126;11.594;2024-02-21T03:32:26;2.90;;;1.60;;
7444;SDS011;3764;48.126;11.594;2024-02-21T03:34:54;1.20;;;1.10;;
7444;SDS011;3764;48.126;11.594;2024-02-21T03:37:21;3.22;;;1.50;;
7444;SDS011;3764;48.126;11.594;2024-02-21T03:39:48;1.73;;;1.30;;
7444;SDS011;3764;48.126;11.594;2024-02-21T03:42:16;4.03;;;1.35;;
7444;SDS011;3764;48.126;11.594;2024-02-21T03:44:43;1.70;;;1.33;;
7444;SDS011;3764;48.126;11.594;2024-02-21T03:47:10;2.05;;;1.40;;
7444;SDS011;3764;48.126;11.594;2024-02-21T03:49:39;1.42;;;1.13;;
7444;SDS011;3764;48.126;11.594;2024-02-21T03:52:06;2.10;;;1.95;;
7444;SDS011;3764;48.126;11.594;2024-02-21T03:54:34;2.53;;;1.55;;
7444;SDS011;3764;48.126;11.594;2024-02-21T03:57:01;2.60;;;1.50;;
7444;SDS011;3764;48.126;11.594;2024-02-21T03:59:28;8.00;;;2.40;;
7444;SDS011;3764;48.126;11.594;2024-02-21T04:01:56;2.20;;;1.50;;
7444;SDS011;3764;48.126;11.594;2024-02-21T04:04:24;1.77;;;1.38;;
7444;SDS011;3764;48.126;11.594;2024-02-21T04:06:52;3.78;;;1.58;;
7444;SDS011;3764;48.126;11.594;2024-02-21T04:09:19;5.45;;;1.60;;
7444;SDS011;3764;48.126;11.594;2024-02-21T04:11:47;3.80;;;1.50;;
7444;SDS011;3764;48.126;11.594;2024-02-21T04:14:14;2.22;;;1.33;;
7444;SDS011;3764;48.126;11.594;2024-02-21T04:16:41;2.55;;;1.25;;
7444;SDS011;3764;48.126;11.594;2024-02-21T04:19:08;2.55;;;1.13;;
7444;SDS011;3764;48.126;11.594;2024-02-21T04:21:36;3.05;;;2.85;;
7444;SDS011;3764;48.126;11.594;2024-02-21T04:24:04;1.92;;;1.27;;
7444;SDS011;3764;48.126;11.594;2024-02-21T04:26:32;8.15;;;1.45;;
7444;SDS011;3764;48.126;11.594;2024-02-21T04:28:59;6.97;;;1.58;;
7444;SDS011;3764;48.126;11.594;2024-02-21T04:31:27;3.70;;;1.30;;
7444;SDS011;3764;48.126;11.594;2024-02-21T04:33:54;2.03;;;1.38;;
7444;SDS011;3764;48.126;11.594;2024-02-21T04:36:22;2.15;;;1.60;;
7444;SDS011;3764;48.126;11.594;2024-02-21T04:38:49;4.72;;;1.63;;
7444;SDS011;3764;48.126;11.594;2024-02-21T04:41:17;2.47;;;1.17;;
7444;SDS011;3764;48.126;11.594;2024-02-21T04:43:45;1.35;;;1.10;;
7444;SDS011;3764;48.126;11.594;2024-02-21T04:46:13;1.60;;;1.17;;
7444;SDS011;3764;48.126;11.594;2024-02-21T04:48:40;3.55;;;1.45;;
7444;SDS011;3764;48.126;11.594;2024-02-21T04:51:08;3.38;;;1.27;;
7444;SDS011;3764;48.126;11.594;2024-02-21T04:53:35;1.42;;;1.25;;
7444;SDS011;3764;48.126;11.594;2024-02-21T04:56:03;1.73;;;1.25;;
7444;SDS011;3764;48.126;11.594;2024-02-21T04:58:32;4.18;;;1.50;;
7444;SDS011;3764;48.126;11.594;2024-02-21T05:00:59;1.35;;;1.25;;
7444;SDS011;3764;48.126;11.594;2024-02-21T05:03:26;1.92;;;1.25;;
7444;SDS011;3764;48.126;11.594;2024-02-21T05:05:53;1.15;;;1.05;;
7444;SDS011;3764;48.126;11.594;2024-02-21T05:08:20;1.45;;;1.35;;
7444;SDS011;3764;48.126;11.594;2024-02-21T05:10:48;1.73;;;1.20;;
7444;SDS011;3764;48.126;11.594;2024-02-21T05:13:15;1.58;;;1.40;;
7444;SDS011;3764;48.126;11.594;2024-02-21T05:15:43;3.78;;;1.30;;
7444;SDS011;3764;48.126;11.594;2024-02-21T05:18:10;2.10;;;1.58;;
7444;SDS011;3764;48.126;11.594;2024-02-21T05:20:38;2.15;;;1.45;;
7444;SDS011;3764;48.126;11.594;2024-02-21T05:23:05;1.52;;;1.23;;
7444;SDS011;3764;48.126;11.594;2024-02-21T05:25:32;2.95;;;1.45;;
7444;SDS011;3764;48.126;11.594;2024-02-21T05:27:59;3.03;;;1.45;;
7444;SDS011;3764;48.126;11.594;2024-02-21T05:30:28;1.30;;;1.00;;
7444;SDS011;3764;48.126;11.594;2024-02-21T05:32:56;1.35;;;1.25;;
7444;SDS011;3764;48.126;11.594;2024-02-21T05:35:27;6.50;;;1.75;;
7444;SDS011;3764;48.126;11.594;2024-02-21T05:37:55;1.65;;;1.35;;
7444;SDS011;3764;48.126;11.594;2024-02-21T05:40:22;1.88;;;1.25;;
7444;SDS011;3764;48.126;11.594;2024-02-21T05:42:50;1.40;;;1.20;;
7444;SDS011;3764;48.126;11.594;2024-02-21T05:45:17;2.15;;;1.20;;
7444;SDS011;3764;48.126;11.594;2024-02-21T05:47:44;5.22;;;1.30;;
7444;SDS011;3764;48.126;11.594;2024-02-21T05:50:13;1.50;;;1.30;;
7444;SDS011;3764;48.126;11.594;2024-02-21T05:52:40;2.72;;;2.45;;
7444;SDS011;3764;48.126;11.594;2024-02-21T05:55:07;1.60;;;1.38;;
7444;SDS011;3764;48.126;11.594;2024-02-21T05:57:35;1.20;;;1.10;;
7444;SDS011;3764;48.126;11.594;2024-02-21T06:00:03;1.60;;;1.13;;
7444;SDS011;3764;48.126;11.594;2024-02-21T06:02:32;1.25;;;1.15;;
7444;SDS011;3764;48.126;11.594;2024-02-21T06:04:59;1.40;;;1.30;;
7444;SDS011;3764;48.126;11.594;2024-02-21T06:07:27;1.70;;;1.10;;
7444;SDS011;3764;48.126;11.594;2024-02-21T06:09:55;1.65;;;1.10;;
7444;SDS011;3764;48.126;11.594;2024-02-21T06:12:22;1.58;;;1.08;;
7444;SDS011;3764;48.126;11.594;2024-02-21T06:14:49;2.72;;;1.13;;
7444;SDS011;3764;48.126;11.594;2024-02-21T06:17:16;2.60;;;1.50;;
7444;SDS011;3764;48.126;11.594;2024-02-21T06:19:43;2.42;;;1.30;;
7444;SDS011;3764;48.126;11.594;2024-02-21T06:22:11;1.38;;;1.05;;
7444;SDS011;3764;48.126;11.594;2024-02-21T06:24:39;2.10;;;1.90;;
7444;SDS011;3764;48.126;11.594;2024-02-21T06:27:06;2.13;;;1.15;;
7444;SDS011;3764;48.126;11.594;2024-02-21T06:29:34;2.13;;;1.15;;
7444;SDS011;3764;48.126;11.594;2024-02-21T06:32:01;1.30;;;1.13;;
7444;SDS011;3764;48.126;11.594;2024-02-21T06:34:28;2.55;;;1.00;;
7444;SDS011;3764;48.126;11.594;2024-02-21T06:36:56;7.85;;;1.40;;
7444;SDS011;3764;48.126;11.594;2024-02-21T06:39:23;1.25;;;1.15;;
7444;SDS011;3764;48.126;11.594;2024-02-21T06:41:51;8.93;;;1.42;;
7444;SDS011;3764;48.126;11.594;2024-02-21T06:44:19;1.30;;;1.20;;
7444;SDS011;3764;48.126;11.594;2024-02-21T06:46:47;2.58;;;1.10;;
7444;SDS011;3764;48.126;11.594;2024-02-21T06:49:14;4.97;;;1.10;;
7444;SDS011;3764;48.126;11.594;2024-02-21T06:51:42;2.05;;;1.17;;
7444;SDS011;3764;48.126;11.594;2024-02-21T06:54:09;2.28;;;1.45;;
7444;SDS011;3764;48.126;11.594;2024-02-21T06:56:36;3.20;;;1.20;;
7444;SDS011;3764;48.126;11.594;2024-02-21T06:59:05;1.77;;;1.23;;
7444;SDS011;3764;48.126;11.594;2024-02-21T07:01:32;2.50;;;1.40;;
7444;SDS011;3764;48.126;11.594;2024-02-21T07:03:59;2.88;;;1.38;;
7444;SDS011;3764;48.126;11.594;2024-02-21T07:06:27;1.20;;;1.00;;
7444;SDS011;3764;48.126;11.594;2024-02-21T07:08:54;3.80;;;1.27;;
7444;SDS011;3764;48.126;11.594;2024-02-21T07:11:21;5.10;;;1.00;;
7444;SDS011;3764;48.126;11.594;2024-02-21T07:13:48;1.40;;;1.00;;
7444;SDS011;3764;48.126;11.594;2024-02-21T07:16:16;2.33;;;1.05;;
7444;SDS011;3764;48.126;11.594;2024-02-21T07:18:44;1.20;;;1.00;;
7444;SDS011;3764;48.126;11.594;2024-02-21T07:21:11;1.77;;;1.17;;
7444;SDS011;3764;48.126;11.594;2024-02-21T07:23:40;1.70;;;1.20;;
7444;SDS011;3764;48.126;11.594;2024-02-21T07:26:08;2.15;;;1.17;;
7444;SDS011;3764;48.126;11.594;2024-02-21T07:28:35;1.65;;;1.05;;
7444;SDS011;3764;48.126;11.594;2024-02-21T07:31:03;2.28;;;1.40;;
7444;SDS011;3764;48.126;11.594;2024-02-21T07:33:31;2.65;;;1.10;;
7444;SDS011;3764;48.126;11.594;2024-02-21T07:36:00;4.10;;;1.38;;
7444;SDS011;3764;48.126;11.594;2024-02-21T07:38:27;1.27;;;1.17;;
7444;SDS011;3764;48.126;11.594;2024-02-21T07:40:55;1.50;;;1.10;;
7444;SDS011;3764;48.126;11.594;2024-02-21T07:43:22;2.55;;;1.30;;
7444;SDS011;3764;48.126;11.594;2024-02-21T07:45:51;1.75;;;0.90;;
7444;SDS011;3764;48.126;11.594;2024-02-21T07:48:20;1.40;;;1.10;;
7444;SDS011;3764;48.126;11.594;2024-02-21T07:50:51;2.83;;;1.33;;
7444;SDS011;3764;48.126;11.594;2024-02-21T07:53:19;2.20;;;0.93;;
7444;SDS011;3764;48.126;11.594;2024-02-21T07:55:47;2.40;;;2.30;;
7444;SDS011;3764;48.126;11.594;2024-02-21T07:58:14;1.23;;;0.82;;
7444;SDS011;3764;48.126;11.594;2024-02-21T08:00:41;1.35;;;1.00;;
7444;SDS011;3764;48.126;11.594;2024-02-21T08:03:08;1.25;;;0.95;;
7444;SDS011;3764;48.126;11.594;2024-02-21T08:05:36;3.40;;;1.33;;
7444;SDS011;3764;48.126;11.594;2024-02-21T08:08:05;2.45;;;1.27;;
7444;SDS011;3764;48.126;11.594;2024-02-21T08:10:33;1.55;;;0.80;;
7444;SDS011;3764;48.126;11.594;2024-02-21T08:13:00;1.88;;;1.08;;
7444;SDS011;3764;48.126;11.594;2024-02-21T08:15:28;2.33;;;0.90;;
7444;SDS011;3764;48.126;11.594;2024-02-21T08:17:55;1.35;;;1.10;;
7444;SDS011;3764;48.126;11.594;2024-02-21T08:20:25;1.30;;;0.80;;
7444;SDS011;3764;48.126;11.594;2024-02-21T08:22:52;1.10;;;0.80;;
7444;SDS011;3764;48.126;11.594;2024-02-21T08:25:20;1.20;;;0.90;;
7444;SDS011;3764;48.126;11.594;2024-02-21T08:27:48;1.33;;;0.88;;
7444;SDS011;3764;48.126;11.594;2024-02-21T08:30:16;1.35;;;1.25;;
7444;SDS011;3764;48.126;11.594;2024-02-21T08:32:45;2.20;;;1.02;;
7444;SDS011;3764;48.126;11.594;2024-02-21T08:35:12;1.38;;;0.80;;
7444;SDS011;3764;48.126;11.594;2024-02-21T08:37:39;1.15;;;0.98;;
7444;SDS011;3764;48.126;11.594;2024-02-21T08:40:08;3.53;;;1.00;;
7444;SDS011;3764;48.126;11.594;2024-02-21T08:42:37;1.20;;;0.80;;
7444;SDS011;3764;48.126;11.594;2024-02-21T08:45:06;3.05;;;1.10;;
7444;SDS011;3764;48.126;11.594;2024-02-21T08:47:34;1.10;;;0.88;;
7444;SDS011;3764;48.126;11.594;2024-02-21T08:50:01;1.15;;;1.05;;
7444;SDS011;3764;48.126;11.594;2024-02-21T08:52:31;3.28;;;1.10;;
7444;SDS011;3764;48.126;11.594;2024-02-21T08:54:58;1.33;;;0.85;;
7444;SDS011;3764;48.126;11.594;2024-02-21T08:57:26;2.13;;;0.90;;
7444;SDS011;3764;48.126;11.594;2024-02-21T08:59:55;1.30;;;1.05;;
7444;SDS011;3764;48.126;11.594;2024-02-21T09:02:22;1.65;;;0.90;;
7444;SDS011;3764;48.126;11.594;2024-02-21T09:04:49;1.38;;;0.90;;
7444;SDS011;3764;48.126;11.594;2024-02-21T09:07:16;1.08;;;0.75;;
7444;SDS011;3764;48.126;11.594;2024-02-21T09:09:44;1.45;;;0.93;;
7444;SDS011;3764;48.126;11.594;2024-02-21T09:12:11;1.75;;;1.15;;
7444;SDS011;3764;48.126;11.594;2024-02-21T09:14:40;1.33;;;0.90;;
7444;SDS011;3764;48.126;11.594;2024-02-21T09:17:09;0.90;;;0.70;;
7444;SDS011;3764;48.126;11.594;2024-02-21T09:19:37;0.95;;;0.80;;
7444;SDS011;3764;48.126;11.594;2024-02-21T09:22:04;1.83;;;0.93;;
7444;SDS011;3764;48.126;11.594;2024-02-21T09:24:32;2.00;;;0.90;;
7444;SDS011;3764;48.126;11.594;2024-02-21T09:26:59;2.30;;;0.88;;
7444;SDS011;3764;48.126;11.594;2024-02-21T09:29:26;1.55;;;0.70;;
7444;SDS011;3764;48.126;11.594;2024-02-21T09:31:53;1.10;;;0.80;;
7444;SDS011;3764;48.126;11.594;2024-02-21T09:34:22;1.70;;;1.52;;
7444;SDS011;3764;48.126;11.594;2024-02-21T09:36:49;1.15;;;0.73;;
7444;SDS011;3764;48.126;11.594;2024-02-21T09:39:17;3.15;;;0.95;;
7444;SDS011;3764;48.126;11.594;2024-02-21T09:41:45;1.00;;;0.90;;
7444;SDS011;3764;48.126;11.594;2024-02-21T09:44:17;1.05;;;0.80;;
7444;SDS011;3764;48.126;11.594;2024-02-21T09:46:49;1.40;;;0.90;;
7444;SDS011;3764;48.126;11.594;2024-02-21T09:49:26;1.33;;;1.08;;
7444;SDS011;3764;48.126;11.594;2024-02-21T09:52:00;1.50;;;0.80;;
7444;SDS011;3764;48.126;11.594;2024-02-21T09:54:29;1.55;;;1.00;;
7444;SDS011;3764;48.126;11.594;2024-02-21T09:56:57;1.30;;;0.90;;
7444;SDS011;3764;48.126;11.594;2024-02-21T09:59:24;2.47;;;0.98;;
7444;SDS011;3764;48.126;11.594;2024-02-21T10:01:54;4.45;;;1.30;;
7444;SDS011;3764;48.126;11.594;2024-02-21T10:04:22;1.08;;;0.98;;
7444;SDS011;3764;48.126;11.594;2024-02-21T10:06:51;1.42;;;1.00;;
7444;SDS011;3764;48.126;11.594;2024-02-21T10:09:20;1.77;;;1.10;;
7444;SDS011;3764;48.126;11.594;2024-02-21T10:11:48;2.72;;;0.80;;
7444;SDS011;3764;48.126;11.594;2024-02-21T10:14:16;1.80;;;0.80;;
7444;SDS011;3764;48.126;11.594;2024-02-21T10:16:43;0.90;;;0.70;;
7444;SDS011;3764;48.126;11.594;2024-02-21T10:19:17;1.00;;;0.90;;
7444;SDS011;3764;48.126;11.594;2024-02-21T10:22:00;1.10;;;0.75;;
7444;SDS011;3764;48.126;11.594;2024-02-21T10:24:30;1.40;;;1.30;;
7444;SDS011;3764;48.126;11.594;2024-02-21T10:26:59;1.67;;;0.82;;
7444;SDS011;3764;48.126;11.594;2024-02-21T10:29:28;2.95;;;0.90;;
7444;SDS011;3764;48.126;11.594;2024-02-21T10:32:03;1.70;;;0.98;;
7444;SDS011;3764;48.126;11.594;2024-02-21T10:34:32;1.15;;;0.70;;
7444;SDS011;3764;48.126;11.594;2024-02-21T10:37:01;1.88;;;0.90;;
7444;SDS011;3764;48.126;11.594;2024-02-21T10:39:29;2.00;;;1.00;;
7444;SDS011;3764;48.126;11.594;2024-02-21T10:41:58;1.67;;;0.65;;
7444;SDS011;3764;48.126;11.594;2024-02-21T10:44:28;1.52;;;0.90;;
7444;SDS011;3764;48.126;11.594;2024-02-21T10:46:56;0.93;;;0.70;;
7444;SDS011;3764;48.126;11.594;2024-02-21T10:49:24;1.20;;;0.90;;
7444;SDS011;3764;48.126;11.594;2024-02-21T10:51:54;1.30;;;0.90;;
7444;SDS011;3764;48.126;11.594;2024-02-21T10:54:39;0.80;;;0.60;;
7444;SDS011;3764;48.126;11.594;2024-02-21T10:57:12;2.22;;;0.80;;
7444;SDS011;3764;48.126;11.594;2024-02-21T10:59:40;1.15;;;0.70;;
7444;SDS011;3764;48.126;11.594;2024-02-21T11:02:09;1.40;;;0.80;;
7444;SDS011;3764;48.126;11.594;2024-02-21T11:04:36;0.90;;;0.70;;
7444;SDS011;3764;48.126;11.594;2024-02-21T11:07:05;2.67;;;0.70;;
7444;SDS011;3764;48.126;11.594;2024-02-21T11:09:34;1.20;;;0.80;;
7444;SDS011;3764;48.126;11.594;2024-02-21T11:12:02;1.00;;;0.65;;
7444;SDS011;3764;48.126;11.594;2024-02-21T11:14:30;0.90;;;0.60;;
7444;SDS011;3764;48.126;11.594;2024-02-21T11:17:01;1.20;;;0.90;;
7444;SDS011;3764;48.126;11.594;2024-02-21T11:19:29;0.90;;;0.70;;
7444;SDS011;3764;48.126;11.594;2024-02-21T11:21:57;1.00;;;0.60;;
7444;SDS011;3764;48.126;11.594;2024-02-21T11:24:27;0.70;;;0.50;;
7444;SDS011;3764;48.126;11.594;2024-02-21T11:26:56;2.03;;;0.93;;
7444;SDS011;3764;48.126;11.594;2024-02-21T11:29:39;0.90;;;0.70;;
7444;SDS011;3764;48.126;11.594;2024-02-21T11:32:09;2.40;;;1.02;;
7444;SDS011;3764;48.126;11.594;2024-02-21T11:34:36;1.00;;;0.70;;
7444;SDS011;3764;48.126;11.594;2024-02-21T11:37:12;1.10;;;0.70;;
7444;SDS011;3764;48.126;11.594;2024-02-21T11:39:41;0.85;;;0.60;;
7444;SDS011;3764;48.126;11.594;2024-02-21T11:42:10;1.60;;;1.10;;
7444;SDS011;3764;48.126;11.594;2024-02-21T11:44:37;1.65;;;0.60;;
7444;SDS011;3764;48.126;11.594;2024-02-21T11:47:07;2.53;;;0.82;;
7444;SDS011;3764;48.126;11.594;2024-02-21T11:49:36;1.20;;;0.80;;
7444;SDS011;3764;48.126;11.594;2024-02-21T11:52:05;0.90;;;0.60;;
7444;SDS011;3764;48.126;11.594;2024-02-21T11:54:33;1.63;;;0.80;;
7444;SDS011;3764;48.126;11.594;2024-02-21T11:57:00;1.33;;;0.70;;
7444;SDS011;3764;48.126;11.594;2024-02-21T11:59:31;0.90;;;0.60;;
7444;SDS011;3764;48.126;11.594;2024-02-21T12:01:58;1.63;;;0.90;;
7444;SDS011;3764;48.126;11.594;2024-02-21T12:04:26;1.00;;;0.80;;
7444;SDS011;3764;48.126;11.594;2024-02-21T12:06:53;1.00;;;0.77;;
7444;SDS011;3764;48.126;11.594;2024-02-21T12:09:22;1.15;;;0.70;;
7444;SDS011;3764;48.126;11.594;2024-02-21T12:11:56;0.90;;;0.60;;
7444;SDS011;3764;48.126;11.594;2024-02-21T12:14:24;3.13;;;1.00;;
7444;SDS011;3764;48.126;11.594;2024-02-21T12:16:54;0.90;;;0.60;;
7444;SDS011;3764;48.126;11.594;2024-02-21T12:19:21;1.00;;;0.80;;
7444;SDS011;3764;48.126;11.594;2024-02-21T12:21:49;4.57;;;0.70;;
7444;SDS011;3764;48.126;11.594;2024-02-21T12:24:17;0.93;;;0.60;;
7444;SDS011;3764;48.126;11.594;2024-02-21T12:26:48;1.27;;;0.77;;
7444;SDS011;3764;48.126;11.594;2024-02-21T12:29:15;1.30;;;0.80;;
7444;SDS011;3764;48.126;11.594;2024-02-21T12:31:42;0.90;;;0.70;;
7444;SDS011;3764;48.126;11.594;2024-02-21T12:34:11;0.80;;;0.60;;
7444;SDS011;3764;48.126;11.594;2024-02-21T12:36:41;1.00;;;0.70;;
7444;SDS011;3764;48.126;11.594;2024-02-21T12:39:09;1.00;;;0.60;;
7444;SDS011;3764;48.126;11.594;2024-02-21T12:41:36;1.27;;;0.60;;
7444;SDS011;3764;48.126;11.594;2024-02-21T12:44:06;1.42;;;0.85;;
7444;SDS011;3764;48.126;11.594;2024-02-21T12:46:33;0.90;;;0.50;;
7444;SDS011;3764;48.126;11.594;2024-02-21T12:49:00;1.17;;;0.50;;
7444;SDS011;3764;48.126;11.594;2024-02-21T12:51:29;2.08;;;0.70;;
7444;SDS011;3764;48.126;11.594;2024-02-21T12:53:57;0.90;;;0.60;;
7444;SDS011;3764;48.126;11.594;2024-02-21T12:56:24;1.10;;;0.70;;
7444;SDS011;3764;48.126;11.594;2024-02-21T12:58:52;0.80;;;0.50;;
7444;SDS011;3764;48.126;11.594;2024-02-21T13:01:20;1.05;;;0.70;;
7444;SDS011;3764;48.126;11.594;2024-02-21T13:03:47;1.20;;;0.65;;
7444;SDS011;3764;48.126;11.594;2024-02-21T13:06:14;1.45;;;1.15;;
7444;SDS011;3764;48.126;11.594;2024-02-21T13:08:43;2.42;;;0.70;;
7444;SDS011;3764;48.126;11.594;2024-02-21T13:11:11;2.03;;;0.90;;
7444;SDS011;3764;48.126;11.594;2024-02-21T13:13:39;1.08;;;0.60;;
7444;SDS011;3764;48.126;11.594;2024-02-21T13:16:06;2.00;;;0.68;;
7444;SDS011;3764;48.126;11.594;2024-02-21T13:18:34;0.93;;;0.60;;
7444;SDS011;3764;48.126;11.594;2024-02-21T13:21:03;0.90;;;0.60;;
7444;SDS011;3764;48.126;11.594;2024-02-21T13:23:31;3.83;;;0.82;;
7444;SDS011;3764;48.126;11.594;2024-02-21T13:25:59;0.90;;;0.60;;
7444;SDS011;3764;48.126;11.594;2024-02-21T13:28:26;2.75;;;0.70;;
7444;SDS011;3764;48.126;11.594;2024-02-21T13:30:54;0.95;;;0.60;;
7444;SDS011;3764;48.126;11.594;2024-02-21T13:33:22;1.67;;;0.70;;
7444;SDS011;3764;48.126;11.594;2024-02-21T13:35:49;1.00;;;0.50;;
7444;SDS011;3764;48.126;11.594;2024-02-21T13:38:17;1.00;;;0.60;;
7444;SDS011;3764;48.126;11.594;2024-02-21T13:40:44;2.15;;;0.90;;
7444;SDS011;3764;48.126;11.594;2024-02-21T13:43:13;0.90;;;0.60;;
7444;SDS011;3764;48.126;11.594;2024-02-21T13:45:40;0.90;;;0.60;;
7444;SDS011;3764;48.126;11.594;2024-02-21T13:48:14;2.25;;;0.70;;
7444;SDS011;3764;48.126;11.594;2024-02-21T13:50:42;1.00;;;0.60;;
7444;SDS011;3764;48.126;11.594;2024-02-21T13:53:09;1.25;;;0.80;;
7444;SDS011;3764;48.126;11.594;2024-02-21T13:55:36;1.00;;;0.68;;
7444;SDS011;3764;48.126;11.594;2024-02-21T13:58:05;1.00;;;0.70;;
7444;SDS011;3764;48.126;11.594;2024-02-21T14:00:35;0.90;;;0.60;;
7444;SDS011;3764;48.126;11.594;2024-02-21T14:03:02;0.90;;;0.60;;
7444;SDS011;3764;48.126;11.594;2024-02-21T14:05:30;1.35;;;0.70;;
7444;SDS011;3764;48.126;11.594;2024-02-21T14:07:57;1.40;;;0.80;;
7444;SDS011;3764;48.126;11.594;2024-02-21T14:10:24;1.10;;;0.80;;
7444;SDS011;3764;48.126;11.594;2024-02-21T14:12:51;0.90;;;0.70;;
7444;SDS011;3764;48.126;11.594;2024-02-21T14:15:18;1.10;;;0.95;;
7444;SDS011;3764;48.126;11.594;2024-02-21T14:17:47;1.20;;;0.80;;
7444;SDS011;3764;48.126;11.594;2024-02-21T14:20:14;2.22;;;0.80;;
7444;SDS011;3764;48.126;11.594;2024-02-21T14:22:41;1.10;;;0.80;;
7444;SDS011;3764;48.126;11.594;2024-02-21T14:25:08;1.35;;;0.90;;
7444;SDS011;3764;48.126;11.594;2024-02-21T14:27:36;1.70;;;1.00;;
7444;SDS011;3764;48.126;11.594;2024-02-21T14:30:03;1.50;;;0.90;;
7444;SDS011;3764;48.126;11.594;2024-02-21T14:32:31;2.78;;;0.85;;
7444;SDS011;3764;48.126;11.594;2024-02-21T14:35:00;1.50;;;0.90;;
7444;SDS011;3764;48.126;11.594;2024-02-21T14:37:28;1.00;;;0.70;;
7444;SDS011;3764;48.126;11.594;2024-02-21T14:39:55;1.52;;;0.80;;
7444;SDS011;3764;48.126;11.594;2024-02-21T14:42:22;1.10;;;0.77;;
7444;SDS011;3764;48.126;11.594;2024-02-21T14:44:50;1.23;;;0.90;;
7444;SDS011;3764;48.126;11.594;2024-02-21T14:47:18;2.47;;;0.60;;
7444;SDS011;3764;48.126;11.594;2024-02-21T14:49:45;2.78;;;0.90;;
7444;SDS011;3764;48.126;11.594;2024-02-21T14:52:13;1.20;;;0.75;;
7444;SDS011;3764;48.126;11.594;2024-02-21T14:54:42;1.50;;;0.82;;
7444;SDS011;3764;48.126;11.594;2024-02-21T14:57:14;2.53;;;1.27;;
7444;SDS011;3764;48.126;11.594;2024-02-21T14:59:41;2.13;;;0.95;;
7444;SDS011;3764;48.126;11.594;2024-02-21T15:02:08;1.17;;;0.75;;
7444;SDS011;3764;48.126;11.594;2024-02-21T15:04:36;2.55;;;1.10;;